Terminal Aerodrome Forecast
Issued by NWS Sterling, VA

Current Version | Previous Version | Text Only | Print | Product List | Glossary Off
Versions: 1 2 3 4 5 6 7 8 9 10 11 12 13 14 15

000
FTUS41 KLWX 191700
TAFMRB
TAF
KMRB 191723Z 1918/2018 08005KT P6SM BKN050
     FM192100 12005KT P6SM BKN050
     FM200600 VRB03KT 5SM BR SCT008 OVC015
     FM200900 VRB03KT 2SM BR BKN008 OVC015
     FM201300 VRB03KT P6SM SCT008 OVC015
     FM201600 18006KT P6SM SCT050=

USA.gov is the U.S. government's official web portal to all federal, state and local government web resources and services.